Time;durP1;ratioP1;P1;durP2;ratioP2;P2;SDS_P1;SDS_P2;PMS_P1;PMS_P2;Temp;Humidity;BMP_temperature;BMP_pressure;BME280_temperature;BME280_humidity;BME280_pressure;Samples;Min_cycle;Max_cycle;Signal;HPM_P1;HPM_P2
2021/09/27 00:00:35;;;;;;;21.45;16.35;;;17.20;99.90;;;;;;5052669;28;25054;-68
2021/09/27 00:03:01;;;;;;;18.00;15.80;;;17.20;99.90;;;;;;5064211;28;25041;-68
2021/09/27 00:05:28;;;;;;;20.17;17.10;;;17.20;99.90;;;;;;5053099;28;25162;-67
2021/09/27 00:07:53;;;;;;;19.83;15.90;;;17.20;99.90;;;;;;5061644;28;25069;-67
2021/09/27 00:10:27;;;;;;;20.17;16.50;;;17.20;99.90;;;;;;5046967;28;25067;-67
2021/09/27 00:12:53;;;;;;;19.23;17.13;;;17.20;99.90;;;;;;5048613;28;25062;-67
2021/09/27 00:15:25;;;;;;;24.77;18.73;;;17.20;99.90;;;;;;5060939;28;25052;-67
2021/09/27 00:17:51;;;;;;;19.98;17.23;;;17.10;99.90;;;;;;5068112;28;25068;-66
2021/09/27 00:20:16;;;;;;;22.17;17.63;;;17.00;99.90;;;;;;5058268;28;25058;-66
2021/09/27 00:22:42;;;;;;;20.13;17.98;;;17.00;99.90;;;;;;5042829;28;25068;-66
2021/09/27 00:25:10;;;;;;;22.70;17.85;;;17.10;99.90;;;;;;5051920;28;25063;-66
2021/09/27 00:27:35;;;;;;;23.50;17.58;;;17.00;99.90;;;;;;5066135;28;25064;-67
2021/09/27 00:30:01;;;;;;;23.83;17.85;;;17.10;99.90;;;;;;5062299;28;25073;-66
2021/09/27 00:32:27;;;;;;;27.73;18.15;;;17.10;99.90;;;;;;5058990;28;25067;-66
2021/09/27 00:34:53;;;;;;;20.40;15.13;;;17.10;99.90;;;;;;5062513;28;25081;-69
2021/09/27 00:37:19;;;;;;;20.98;18.15;;;17.10;99.90;;;;;;5064564;28;25105;-68
2021/09/27 00:39:44;;;;;;;19.88;17.02;;;17.10;99.90;;;;;;5063150;28;25127;-65
2021/09/27 00:42:10;;;;;;;21.05;17.20;;;17.00;99.90;;;;;;5063803;28;25166;-66
2021/09/27 00:44:37;;;;;;;25.35;18.05;;;17.00;99.90;;;;;;5067951;28;25060;-67
2021/09/27 00:47:03;;;;;;;22.88;17.92;;;17.00;99.90;;;;;;5062821;28;25059;-66
2021/09/27 00:49:29;;;;;;;19.90;17.63;;;17.00;99.90;;;;;;5062986;28;25087;-66
2021/09/27 00:51:55;;;;;;;18.92;16.85;;;16.90;99.90;;;;;;5065477;28;25154;-65
2021/09/27 00:54:32;;;;;;;26.00;19.35;;;16.90;99.90;;;;;;5062899;28;25059;-66
2021/09/27 00:57:06;;;;;;;26.08;20.55;;;16.80;99.90;;;;;;5036642;28;25060;-69
2021/09/27 00:59:36;;;;;;;21.45;18.75;;;16.60;99.90;;;;;;5065592;28;25070;-68
2021/09/27 01:02:01;;;;;;;32.08;19.88;;;16.40;99.90;;;;;;5060742;28;25049;-67
2021/09/27 01:04:27;;;;;;;25.98;19.05;;;16.40;99.90;;;;;;5051799;28;25077;-67
2021/09/27 01:07:08;;;;;;;28.40;19.98;;;16.40;99.90;;;;;;5063905;28;25060;-67
2021/09/27 01:10:11;;;;;;;28.48;19.63;;;16.40;99.90;;;;;;5064089;28;25106;-66
2021/09/27 01:12:56;;;;;;;;;;;16.40;99.90;;;;;;5068374;28;25132;-66
2021/09/27 01:15:49;;;;;;;25.08;19.50;;;16.40;99.90;;;;;;5063317;28;25089;-67
2021/09/27 01:18:31;;;;;;;26.65;19.85;;;16.40;99.90;;;;;;5062550;28;25072;-68
2021/09/27 01:21:02;;;;;;;23.38;19.30;;;16.40;99.90;;;;;;5064189;28;25056;-66
2021/09/27 01:23:48;;;;;;;22.48;17.73;;;16.40;99.90;;;;;;5061982;28;25075;-66
2021/09/27 01:26:47;;;;;;;27.85;19.55;;;16.50;99.90;;;;;;5058591;28;25150;-65
2021/09/27 01:29:30;;;;;;;26.80;19.55;;;16.50;99.90;;;;;;5060885;28;25130;-66
2021/09/27 01:32:15;;;;;;;26.48;21.05;;;16.50;99.90;;;;;;5069109;28;25131;-65
2021/09/27 01:35:01;;;;;;;29.23;21.88;;;16.40;99.90;;;;;;5071077;28;25096;-66
2021/09/27 01:37:51;;;;;;;28.65;21.45;;;16.40;99.90;;;;;;5071276;28;25075;-66
2021/09/27 01:40:36;;;;;;;30.55;22.38;;;16.40;99.90;;;;;;5068720;28;25110;-67
2021/09/27 01:43:21;;;;;;;29.55;21.08;;;16.40;99.90;;;;;;5061005;28;25050;-67
2021/09/27 01:45:56;;;;;;;28.08;21.48;;;16.40;99.90;;;;;;5067450;28;25111;-67
2021/09/27 01:48:27;;;;;;;28.58;22.20;;;16.40;99.90;;;;;;5062594;28;25066;-67
2021/09/27 01:51:04;;;;;;;28.90;20.80;;;16.40;99.90;;;;;;5070895;28;25108;-67
2021/09/27 01:53:46;;;;;;;34.72;24.10;;;16.30;99.90;;;;;;5066088;28;25133;-67
2021/09/27 01:56:35;;;;;;;30.52;23.25;;;16.20;99.90;;;;;;5071450;28;25073;-66
2021/09/27 01:59:10;;;;;;;29.77;23.63;;;16.20;99.90;;;;;;5062187;28;25092;-67
2021/09/27 02:02:13;;;;;;;34.22;25.02;;;16.10;99.90;;;;;;5061287;28;25078;-67
2021/09/27 02:05:22;;;;;;;30.02;23.60;;;16.10;99.90;;;;;;5070182;28;25099;-66
2021/09/27 02:08:06;;;;;;;36.58;25.45;;;16.20;99.90;;;;;;5059913;28;25173;-66
2021/09/27 02:10:46;;;;;;;30.23;24.23;;;16.20;99.90;;;;;;5056624;28;25070;-66
2021/09/27 02:13:35;;;;;;;35.05;25.05;;;16.20;99.90;;;;;;5068471;28;25073;-66
2021/09/27 02:16:14;;;;;;;37.85;27.00;;;16.20;99.90;;;;;;5066861;28;25133;-66
2021/09/27 02:18:52;;;;;;;31.35;24.38;;;16.10;99.90;;;;;;5060676;28;25152;-69
2021/09/27 02:21:21;;;;;;;39.85;26.48;;;16.20;99.90;;;;;;5054075;28;25101;-69
2021/09/27 02:24:21;;;;;;;32.63;24.55;;;16.20;99.90;;;;;;5067138;28;25108;-65
2021/09/27 02:26:49;;;;;;;32.72;24.95;;;16.20;99.90;;;;;;5040371;28;25076;-66
2021/09/27 02:29:17;;;;;;;36.60;25.67;;;16.20;99.90;;;;;;5066270;28;24983;-67
2021/09/27 02:31:57;;;;;;;31.23;25.60;;;16.20;99.90;;;;;;5058612;28;25144;-67
2021/09/27 02:34:53;;;;;;;39.25;25.48;;;16.30;99.90;;;;;;5068844;28;25118;-68
2021/09/27 02:37:42;;;;;;;31.00;24.67;;;16.30;99.90;;;;;;5063472;28;25080;-67
2021/09/27 02:40:10;;;;;;;34.92;26.80;;;16.20;99.90;;;;;;5057657;28;25065;-67
2021/09/27 02:42:48;;;;;;;36.55;26.33;;;16.20;99.90;;;;;;5060088;28;25073;-67
2021/09/27 02:45:15;;;;;;;35.13;27.15;;;16.10;99.90;;;;;;5070113;28;25031;-68
2021/09/27 02:47:46;;;;;;;35.30;25.50;;;16.10;99.90;;;;;;5075318;28;25067;-66
2021/09/27 02:50:19;;;;;;;33.58;25.42;;;16.10;99.90;;;;;;5071263;28;25062;-67
2021/09/27 02:52:45;;;;;;;37.95;27.42;;;16.10;99.90;;;;;;5073112;28;25099;-66
2021/09/27 02:55:19;;;;;;;34.88;25.30;;;16.20;99.90;;;;;;5051795;28;25095;-65
2021/09/27 02:57:47;;;;;;;34.13;24.83;;;16.10;99.90;;;;;;5066202;28;25063;-68
2021/09/27 03:00:46;;;;;;;40.67;28.25;;;16.10;99.90;;;;;;5057700;28;25066;-67
2021/09/27 03:03:31;;;;;;;38.55;27.83;;;16.10;99.90;;;;;;5066475;28;25058;-65
2021/09/27 03:06:03;;;;;;;32.65;25.48;;;16.10;99.90;;;;;;5042969;28;25065;-67
2021/09/27 03:08:41;;;;;;;40.03;24.42;;;16.10;99.90;;;;;;5068985;28;25134;-65
2021/09/27 03:11:24;;;;;;;34.55;26.63;;;16.10;99.90;;;;;;5058669;28;25100;-65
2021/09/27 03:14:25;;;;;;;38.30;26.92;;;16.10;99.90;;;;;;5060223;28;25074;-68
2021/09/27 03:17:29;;;;;;;38.13;26.58;;;16.10;99.90;;;;;;5056321;28;25139;-68
2021/09/27 03:20:02;;;;;;;46.33;29.63;;;16.10;99.90;;;;;;5024081;28;26494;-67
2021/09/27 03:22:51;;;;;;;37.35;26.15;;;16.00;99.90;;;;;;5055028;28;25053;-65
2021/09/27 03:25:54;;;;;;;35.83;26.63;;;16.10;99.90;;;;;;5057519;28;25077;-66
2021/09/27 03:28:28;;;;;;;35.13;25.88;;;16.10;99.90;;;;;;5064439;28;25073;-65
2021/09/27 03:31:22;;;;;;;40.88;28.67;;;16.10;99.90;;;;;;5064458;28;25077;-67
2021/09/27 03:34:11;;;;;;;37.50;28.33;;;16.10;99.90;;;;;;5063504;28;25127;-67
2021/09/27 03:36:51;;;;;;;40.63;27.40;;;16.10;99.90;;;;;;5062657;28;25127;-67
2021/09/27 03:39:51;;;;;;;37.58;26.88;;;16.10;99.90;;;;;;5060927;28;25121;-66
2021/09/27 03:42:35;;;;;;;40.20;28.38;;;16.10;99.90;;;;;;5062168;28;25062;-66
2021/09/27 03:45:11;;;;;;;36.03;26.55;;;16.10;99.90;;;;;;5064979;28;25069;-66
2021/09/27 03:48:05;;;;;;;35.33;26.63;;;16.00;99.90;;;;;;5056353;28;25083;-68
2021/09/27 03:50:39;;;;;;;39.72;27.10;;;16.00;99.90;;;;;;5061462;28;25096;-67
2021/09/27 03:53:27;;;;;;;39.42;27.52;;;16.10;99.90;;;;;;5049531;28;25080;-67
2021/09/27 03:56:04;;;;;;;36.72;27.05;;;16.10;99.90;;;;;;5063813;28;25080;-67
2021/09/27 03:58:39;;;;;;;42.70;29.10;;;16.10;99.90;;;;;;5059219;28;25071;-66
2021/09/27 04:01:19;;;;;;;40.13;30.02;;;16.00;99.90;;;;;;5055715;28;25070;-67
2021/09/27 04:04:14;;;;;;;44.05;28.65;;;16.00;99.90;;;;;;5066008;28;25075;-66
2021/09/27 04:07:00;;;;;;;45.42;29.60;;;16.00;99.90;;;;;;5059076;28;25061;-67
2021/09/27 04:09:56;;;;;;;43.25;28.50;;;16.00;99.90;;;;;;5062752;28;25089;-67
2021/09/27 04:13:02;;;;;;;41.33;29.92;;;16.10;99.90;;;;;;5061431;28;25126;-67
2021/09/27 04:15:45;;;;;;;41.35;29.65;;;16.00;99.90;;;;;;5064079;28;25108;-68
2021/09/27 04:18:22;;;;;;;41.28;30.67;;;15.90;99.90;;;;;;5059513;28;25147;-67
2021/09/27 04:21:12;;;;;;;46.78;30.45;;;16.00;99.90;;;;;;5045641;28;25085;-66
2021/09/27 04:24:22;;;;;;;44.20;31.13;;;16.00;99.90;;;;;;5047446;28;25095;-67
2021/09/27 04:27:11;;;;;;;44.50;31.60;;;15.90;99.90;;;;;;5062140;28;25106;-67
2021/09/27 04:29:55;;;;;;;49.97;31.98;;;15.90;99.90;;;;;;5063515;28;25155;-66
2021/09/27 04:32:45;;;;;;;53.63;30.85;;;15.90;99.90;;;;;;5077959;22;25082;-60
2021/09/27 04:35:36;;;;;;;44.72;32.58;;;15.80;99.90;;;;;;5038742;28;25068;-61
2021/09/27 04:38:04;;;;;;;38.58;27.90;;;15.80;99.90;;;;;;5046027;28;25098;-61
2021/09/27 04:41:06;;;;;;;41.03;29.70;;;15.80;99.90;;;;;;5041439;28;25092;-60
2021/09/27 04:43:46;;;;;;;45.70;31.75;;;15.80;99.90;;;;;;5032127;28;25095;-60
2021/09/27 04:46:25;;;;;;;50.67;30.85;;;15.70;99.90;;;;;;5025888;28;25059;-61
2021/09/27 04:49:14;;;;;;;44.40;29.80;;;15.70;99.90;;;;;;5023980;28;25058;-59
2021/09/27 04:52:04;;;;;;;48.13;29.73;;;15.80;99.90;;;;;;5023086;28;25125;-59
2021/09/27 04:54:52;;;;;;;48.05;31.88;;;15.80;99.90;;;;;;5025738;28;25062;-60
2021/09/27 04:57:41;;;;;;;48.78;31.77;;;15.70;99.90;;;;;;5023292;28;25054;-60
2021/09/27 05:00:09;;;;;;;44.08;29.85;;;15.70;99.90;;;;;;5021982;28;25042;-61
2021/09/27 05:02:54;;;;;;;44.90;30.80;;;15.70;99.90;;;;;;5026684;28;25123;-61
2021/09/27 05:05:29;;;;;;;36.90;28.27;;;15.70;99.90;;;;;;5030639;28;25142;-61
2021/09/27 05:08:24;;;;;;;41.60;29.08;;;15.70;99.90;;;;;;5033083;28;25120;-61
2021/09/27 05:11:16;;;;;;;39.25;27.58;;;15.70;99.90;;;;;;4993168;28;25072;-60
2021/09/27 05:13:57;;;;;;;36.10;26.15;;;15.70;99.90;;;;;;5018459;28;25064;-61
2021/09/27 05:16:58;;;;;;;37.27;27.93;;;15.70;99.90;;;;;;5037569;28;25049;-62
2021/09/27 05:19:53;;;;;;;41.65;26.70;;;15.70;99.90;;;;;;5014723;28;25083;-60
2021/09/27 05:22:47;;;;;;;40.70;27.70;;;15.70;99.90;;;;;;5028191;28;25071;-61
2021/09/27 05:25:22;;;;;;;44.38;29.20;;;15.70;99.90;;;;;;5035306;28;25133;-61
2021/09/27 05:28:12;;;;;;;41.30;28.98;;;15.60;99.90;;;;;;5041792;28;25113;-60
2021/09/27 05:30:45;;;;;;;35.45;27.13;;;15.60;99.90;;;;;;5032422;28;25108;-59
2021/09/27 05:33:18;;;;;;;42.72;28.98;;;15.60;99.90;;;;;;5031941;28;25072;-61
2021/09/27 05:35:59;;;;;;;38.05;26.70;;;15.60;99.90;;;;;;5031307;28;25073;-62
2021/09/27 05:38:40;;;;;;;40.80;28.55;;;15.60;99.90;;;;;;5031509;28;25133;-60
2021/09/27 05:41:51;;;;;;;41.63;28.45;;;15.60;99.90;;;;;;5031758;28;25055;-61
2021/09/27 05:44:17;;;;;;;38.33;27.10;;;15.60;99.90;;;;;;5033734;28;25053;-61
2021/09/27 05:47:12;;;;;;;36.55;26.42;;;15.70;99.90;;;;;;5017550;28;25066;-60
2021/09/27 05:49:37;;;;;;;38.55;25.50;;;15.70;99.90;;;;;;5011423;28;25078;-61
2021/09/27 05:52:23;;;;;;;36.35;27.13;;;15.80;99.90;;;;;;5034952;28;25055;-60
2021/09/27 05:55:00;;;;;;;39.20;26.63;;;15.80;99.90;;;;;;5025895;28;25076;-62
2021/09/27 05:57:32;;;;;;;34.45;25.08;;;15.80;99.90;;;;;;5039386;28;25054;-60
2021/09/27 06:00:13;;;;;;;31.40;25.50;;;15.90;99.90;;;;;;5041116;28;25064;-60
2021/09/27 06:03:12;;;;;;;28.23;23.40;;;16.00;99.90;;;;;;5025420;28;25142;-61
2021/09/27 06:05:45;;;;;;;34.33;25.50;;;16.00;99.90;;;;;;5027690;28;25083;-63
2021/09/27 06:08:29;;;;;;;32.63;21.85;;;15.90;99.90;;;;;;5028421;28;25062;-61
2021/09/27 06:11:20;;;;;;;30.33;22.83;;;16.00;99.90;;;;;;5015701;28;25052;-61
2021/09/27 06:13:49;;;;;;;33.55;23.98;;;16.10;99.90;;;;;;5028365;28;25095;-62
2021/09/27 06:16:52;;;;;;;37.10;25.75;;;16.10;99.90;;;;;;5028672;28;25145;-61
2021/09/27 06:19:39;;;;;;;28.85;23.55;;;16.10;99.90;;;;;;5027279;28;25090;-64
2021/09/27 06:22:26;;;;;;;29.20;23.95;;;16.10;99.90;;;;;;5028817;28;25097;-63
2021/09/27 06:25:11;;;;;;;29.70;24.15;;;16.20;99.90;;;;;;5028236;28;25145;-63
2021/09/27 06:27:49;;;;;;;33.45;24.48;;;16.20;99.90;;;;;;5028243;28;25155;-61
2021/09/27 06:30:42;;;;;;;31.98;23.20;;;16.20;99.90;;;;;;5027650;28;25093;-62
2021/09/27 06:33:36;;;;;;;29.63;21.65;;;16.20;99.90;;;;;;5028985;28;25107;-60
2021/09/27 06:36:23;;;;;;;30.27;21.58;;;16.30;99.90;;;;;;5035684;28;25062;-61
2021/09/27 06:38:54;;;;;;;24.77;20.35;;;16.40;99.90;;;;;;5025386;28;25144;-60
2021/09/27 06:41:22;;;;;;;28.08;21.50;;;16.40;99.90;;;;;;5022548;28;25072;-61
2021/09/27 06:43:48;;;;;;;29.70;21.42;;;16.50;99.90;;;;;;5025797;28;25068;-62
2021/09/27 06:46:15;;;;;;;26.08;20.08;;;16.50;99.90;;;;;;5028330;28;25058;-60
2021/09/27 06:48:41;;;;;;;24.60;19.20;;;16.60;99.90;;;;;;5027017;28;25095;-60
2021/09/27 06:51:07;;;;;;;31.13;21.38;;;16.60;99.90;;;;;;5031311;28;25085;-60
2021/09/27 06:53:32;;;;;;;29.40;22.20;;;16.60;99.90;;;;;;5033308;28;25080;-61
2021/09/27 06:55:59;;;;;;;28.40;22.90;;;16.60;99.90;;;;;;5036943;28;25059;-60
2021/09/27 06:58:25;;;;;;;35.17;24.70;;;16.60;99.90;;;;;;5033570;28;25140;-60
2021/09/27 07:00:53;;;;;;;33.30;23.58;;;16.60;99.90;;;;;;5030357;28;25348;-61
2021/09/27 07:03:19;;;;;;;29.20;22.58;;;16.60;99.90;;;;;;5027149;28;25082;-60
2021/09/27 07:05:45;;;;;;;29.35;23.55;;;16.60;99.90;;;;;;5028247;28;25167;-61
2021/09/27 07:08:10;;;;;;;29.17;23.25;;;16.70;99.90;;;;;;5022660;28;25149;-61
2021/09/27 07:10:36;;;;;;;26.67;22.05;;;16.70;99.90;;;;;;5034892;28;25052;-58
2021/09/27 07:13:02;;;;;;;32.53;23.60;;;16.60;99.90;;;;;;5030213;28;25072;-59
2021/09/27 07:15:28;;;;;;;28.95;22.73;;;16.70;99.90;;;;;;5027467;28;25103;-61
2021/09/27 07:17:53;;;;;;;28.42;23.05;;;16.70;99.90;;;;;;5033544;28;25154;-60
2021/09/27 07:20:22;;;;;;;33.80;25.10;;;16.70;99.90;;;;;;5027361;28;25063;-62
2021/09/27 07:22:48;;;;;;;29.98;23.67;;;16.70;99.90;;;;;;5036654;28;25093;-59
2021/09/27 07:25:15;;;;;;;26.83;22.45;;;16.70;99.90;;;;;;5020774;28;25126;-59
2021/09/27 07:27:42;;;;;;;28.13;23.92;;;16.70;99.90;;;;;;5026609;28;25106;-61
2021/09/27 07:30:09;;;;;;;26.88;21.95;;;16.80;99.90;;;;;;5025895;28;25068;-62
2021/09/27 07:32:35;;;;;;;31.42;25.83;;;16.80;99.90;;;;;;5026476;28;25066;-60
2021/09/27 07:35:02;;;;;;;32.47;23.52;;;16.80;99.90;;;;;;5038361;28;25065;-60
2021/09/27 07:37:27;;;;;;;30.83;23.60;;;16.70;99.90;;;;;;5009790;28;25058;-60
2021/09/27 07:39:53;;;;;;;35.03;25.52;;;16.70;99.90;;;;;;5022717;28;25077;-64
2021/09/27 07:42:18;;;;;;;31.42;24.40;;;16.70;99.90;;;;;;5026778;28;25143;-59
2021/09/27 07:44:44;;;;;;;31.98;24.85;;;16.70;99.90;;;;;;5026168;28;25051;-61
2021/09/27 07:47:09;;;;;;;27.70;23.58;;;16.80;99.90;;;;;;5026068;28;25092;-60
2021/09/27 07:49:35;;;;;;;33.92;23.40;;;16.80;99.90;;;;;;5030133;28;25092;-60
2021/09/27 07:52:00;;;;;;;32.05;23.98;;;16.90;99.90;;;;;;5024910;28;25137;-61
2021/09/27 07:54:26;;;;;;;29.10;22.98;;;16.90;99.90;;;;;;5025132;28;25084;-60
2021/09/27 07:56:53;;;;;;;29.52;23.38;;;17.00;99.90;;;;;;5023954;28;25103;-60
2021/09/27 07:59:18;;;;;;;30.70;24.05;;;17.00;99.90;;;;;;5026359;28;25077;-60
2021/09/27 08:01:44;;;;;;;28.70;23.02;;;17.00;99.90;;;;;;5025417;28;25079;-61
2021/09/27 08:04:10;;;;;;;31.70;24.02;;;17.00;99.90;;;;;;5025380;28;25154;-60
2021/09/27 08:06:36;;;;;;;28.17;23.13;;;17.10;99.90;;;;;;5025704;28;25150;-62
2021/09/27 08:09:03;;;;;;;28.13;22.38;;;17.10;99.90;;;;;;5024658;28;25121;-60
2021/09/27 08:11:28;;;;;;;28.60;21.95;;;17.20;99.90;;;;;;5024888;28;25066;-61
2021/09/27 08:13:54;;;;;;;29.13;21.80;;;17.20;99.90;;;;;;5024624;28;25080;-61
2021/09/27 08:16:20;;;;;;;24.13;20.77;;;17.20;99.90;;;;;;5025104;28;25077;-60
2021/09/27 08:18:46;;;;;;;27.60;19.10;;;17.30;99.90;;;;;;5025969;28;25059;-60
2021/09/27 08:21:16;;;;;;;27.35;20.60;;;17.30;99.90;;;;;;5019189;28;25065;-58
2021/09/27 08:23:42;;;;;;;30.05;21.85;;;17.30;99.90;;;;;;5033419;28;25051;-61
2021/09/27 08:26:09;;;;;;;26.73;19.63;;;17.40;99.90;;;;;;5025903;28;25103;-60
2021/09/27 08:28:36;;;;;;;20.75;18.08;;;17.40;99.90;;;;;;5024559;28;25089;-61
2021/09/27 08:31:10;;;;;;;24.25;18.52;;;17.50;99.90;;;;;;5026221;28;25091;-60
2021/09/27 08:33:36;;;;;;;23.55;18.90;;;17.60;99.90;;;;;;5018429;28;25114;-60
2021/09/27 08:36:05;;;;;;;23.52;16.73;;;17.70;99.90;;;;;;5033420;28;25148;-60
2021/09/27 08:38:36;;;;;;;27.00;18.20;;;17.80;99.90;;;;;;5024503;28;25105;-61
2021/09/27 08:41:25;;;;;;;25.20;17.67;;;17.80;99.90;;;;;;5017851;28;25072;-62
2021/09/27 08:44:21;;;;;;;21.85;17.67;;;17.90;99.90;;;;;;5024029;28;25075;-61
2021/09/27 08:46:58;;;;;;;21.55;16.65;;;18.10;99.90;;;;;;5023949;28;25086;-61
2021/09/27 08:49:53;;;;;;;19.20;16.02;;;18.10;99.90;;;;;;5016430;28;25146;-60
2021/09/27 08:52:21;;;;;;;21.48;15.77;;;18.10;99.90;;;;;;5025144;28;25065;-63
2021/09/27 08:54:49;;;;;;;18.42;14.98;;;18.20;99.90;;;;;;5028355;28;25076;-60
2021/09/27 08:57:31;;;;;;;18.20;15.73;;;18.20;99.90;;;;;;5024901;28;25133;-61
2021/09/27 09:00:34;;;;;;;18.80;15.32;;;18.40;99.90;;;;;;5025639;28;25076;-60
2021/09/27 09:03:08;;;;;;;16.38;13.52;;;18.40;99.90;;;;;;5026513;28;25061;-61
2021/09/27 09:05:53;;;;;;;17.15;13.63;;;18.30;99.90;;;;;;5023330;28;25142;-61
2021/09/27 09:08:26;;;;;;;18.98;14.10;;;18.30;99.90;;;;;;5026535;28;25143;-60
2021/09/27 09:11:03;;;;;;;;;;;18.40;99.90;;;;;;5025377;28;25287;-60
2021/09/27 09:13:44;;;;;;;14.88;12.25;;;18.40;99.90;;;;;;5025356;28;25122;-59
2021/09/27 09:16:17;;;;;;;16.45;11.90;;;18.40;99.90;;;;;;5022308;28;25054;-59
2021/09/27 09:18:49;;;;;;;13.68;12.18;;;18.50;99.90;;;;;;5029825;28;25068;-60
2021/09/27 09:21:33;;;;;;;16.77;11.10;;;18.50;99.90;;;;;;5024403;28;25065;-60
2021/09/27 09:24:04;;;;;;;19.33;11.98;;;18.60;99.90;;;;;;5030767;28;25067;-61
2021/09/27 09:26:43;;;;;;;14.63;10.20;;;18.60;99.90;;;;;;5028276;28;25135;-60
2021/09/27 09:29:10;;;;;;;16.85;10.48;;;18.60;99.90;;;;;;5029184;28;25138;-61
2021/09/27 09:31:44;;;;;;;18.77;10.80;;;18.60;99.90;;;;;;5040812;28;25066;-66
2021/09/27 09:34:32;;;;;;;15.52;10.70;;;18.60;99.90;;;;;;5050248;28;25079;-61
2021/09/27 09:37:05;;;;;;;14.68;10.02;;;18.60;99.90;;;;;;5026696;28;25096;-61
2021/09/27 09:39:35;;;;;;;12.95;10.82;;;18.70;99.90;;;;;;5012702;28;25123;-61
2021/09/27 09:42:05;;;;;;;15.05;10.40;;;18.70;99.90;;;;;;5028177;28;25106;-60
2021/09/27 09:44:43;;;;;;;13.50;9.25;;;18.70;99.90;;;;;;5024855;28;25072;-62
2021/09/27 09:47:11;;;;;;;10.98;8.90;;;18.80;99.90;;;;;;5013225;28;25100;-62
2021/09/27 09:49:51;;;;;;;15.20;9.00;;;18.80;99.90;;;;;;5026610;28;25109;-61
2021/09/27 09:52:42;;;;;;;11.82;8.80;;;18.90;99.90;;;;;;5014056;28;25113;-61
2021/09/27 09:55:22;;;;;;;14.77;10.43;;;19.00;99.90;;;;;;5028410;28;25143;-61
2021/09/27 09:58:09;;;;;;;9.68;8.23;;;18.90;99.90;;;;;;5011724;28;25128;-62
2021/09/27 10:00:41;;;;;;;10.60;8.18;;;18.90;99.90;;;;;;5032822;28;25129;-61
2021/09/27 10:03:13;;;;;;;15.15;8.43;;;18.90;99.90;;;;;;5030465;28;25125;-60
2021/09/27 10:05:51;;;;;;;23.83;9.70;;;18.90;99.90;;;;;;5034912;28;25075;-62
2021/09/27 10:08:24;;;;;;;11.48;8.35;;;18.90;99.90;;;;;;5031533;28;25084;-60
2021/09/27 10:10:57;;;;;;;10.10;7.80;;;19.00;99.90;;;;;;5035184;28;25135;-60
2021/09/27 10:13:39;;;;;;;13.07;8.10;;;18.90;99.90;;;;;;5043246;28;25404;-60
2021/09/27 10:16:08;;;;;;;10.93;7.47;;;18.90;99.90;;;;;;5017895;28;25141;-61
2021/09/27 10:18:38;;;;;;;9.07;7.72;;;18.90;99.90;;;;;;5029490;28;25102;-64
2021/09/27 10:21:18;;;;;;;13.57;7.50;;;18.90;99.90;;;;;;5028910;28;25097;-62
2021/09/27 10:23:48;;;;;;;12.50;7.50;;;18.80;99.90;;;;;;5028591;28;25073;-61
2021/09/27 10:26:36;;;;;;;8.25;7.00;;;18.80;99.90;;;;;;5028793;28;25074;-60
2021/09/27 10:29:12;;;;;;;10.75;6.93;;;18.80;99.90;;;;;;5027913;28;25070;-60
2021/09/27 10:31:40;;;;;;;13.55;7.15;;;18.80;99.90;;;;;;5029400;28;25122;-61
2021/09/27 10:34:14;;;;;;;11.48;7.93;;;18.90;99.90;;;;;;5078282;22;25055;-66
2021/09/27 10:36:47;;;;;;;9.80;6.57;;;19.00;99.90;;;;;;5032825;28;25102;-66
2021/09/27 10:39:17;;;;;;;11.82;6.75;;;19.00;99.90;;;;;;5071615;28;25062;-64
2021/09/27 10:42:03;;;;;;;9.45;6.80;;;19.00;99.90;;;;;;5068217;28;25053;-67
2021/09/27 10:44:35;;;;;;;10.65;6.70;;;19.00;99.90;;;;;;5068062;28;25104;-68
2021/09/27 10:47:06;;;;;;;;;;;19.10;99.90;;;;;;5067543;28;25072;-66
2021/09/27 10:49:37;;;;;;;8.27;5.68;;;19.10;99.90;;;;;;5060096;28;25054;-68
2021/09/27 10:52:25;;;;;;;7.70;5.00;;;19.20;99.90;;;;;;5058076;28;25073;-68
2021/09/27 10:55:22;;;;;;;9.23;5.95;;;19.30;99.90;;;;;;5058906;28;25104;-66
2021/09/27 10:57:59;;;;;;;9.15;5.13;;;19.30;99.90;;;;;;5014406;28;25063;-67
2021/09/27 11:00:34;;;;;;;12.35;5.68;;;19.30;99.90;;;;;;5063609;28;25055;-64
2021/09/27 11:03:25;;;;;;;12.05;5.20;;;19.30;99.90;;;;;;5060486;28;25069;-64
2021/09/27 11:05:58;;;;;;;6.85;4.38;;;19.40;99.90;;;;;;5049949;28;25114;-64
2021/09/27 11:08:36;;;;;;;10.88;4.57;;;19.60;99.90;;;;;;5072604;28;25079;-67
2021/09/27 11:11:16;;;;;;;8.32;4.72;;;19.70;99.90;;;;;;5064578;28;25062;-64
2021/09/27 11:13:43;;;;;;;10.50;4.75;;;19.70;99.90;;;;;;5063177;28;25057;-65
2021/09/27 11:16:35;;;;;;;6.88;4.25;;;19.60;99.90;;;;;;5068141;28;25133;-66
2021/09/27 11:19:28;;;;;;;8.70;4.03;;;19.60;99.90;;;;;;5056374;28;25056;-66
2021/09/27 11:21:54;;;;;;;10.20;4.50;;;19.70;99.90;;;;;;5068173;28;25137;-66
2021/09/27 11:24:19;;;;;;;14.85;4.60;;;19.80;99.90;;;;;;5079312;28;25085;-65
2021/09/27 11:27:07;;;;;;;6.63;4.38;;;19.80;99.90;;;;;;5077736;28;25076;-66
2021/09/27 11:29:36;;;;;;;7.03;4.43;;;19.70;99.90;;;;;;5081117;28;25137;-64
2021/09/27 11:32:12;;;;;;;9.02;4.03;;;19.70;99.90;;;;;;5074296;28;25119;-66
2021/09/27 11:34:38;;;;;;;9.90;3.67;;;19.60;99.90;;;;;;5066867;28;25079;-67
2021/09/27 11:37:21;;;;;;;5.70;3.67;;;19.60;99.90;;;;;;5065018;28;25131;-65
2021/09/27 11:39:53;;;;;;;7.85;4.50;;;19.80;99.90;;;;;;5057564;28;25062;-64
2021/09/27 11:42:19;;;;;;;11.30;4.55;;;19.90;99.90;;;;;;5068515;28;25075;-66
2021/09/27 11:44:59;;;;;;;10.65;4.15;;;19.80;99.90;;;;;;5064992;28;25101;-67
2021/09/27 11:47:55;;;;;;;5.40;3.80;;;19.70;99.90;;;;;;5068895;28;25093;-65
2021/09/27 11:50:29;;;;;;;8.10;4.00;;;19.50;99.90;;;;;;5065474;28;25103;-66
2021/09/27 11:53:06;;;;;;;5.00;3.60;;;19.40;99.90;;;;;;5060552;28;25073;-66
2021/09/27 11:55:38;;;;;;;9.02;4.45;;;19.30;99.90;;;;;;5063808;28;25073;-67
2021/09/27 11:58:23;;;;;;;6.47;3.80;;;19.30;99.90;;;;;;5056430;28;25129;-66
2021/09/27 12:00:58;;;;;;;7.40;4.75;;;19.20;99.90;;;;;;5060962;28;25091;-66
2021/09/27 12:03:48;;;;;;;5.50;3.85;;;19.20;99.90;;;;;;5062605;28;25077;-67
2021/09/27 12:06:19;;;;;;;7.38;4.25;;;19.10;99.90;;;;;;5063580;28;25126;-64
2021/09/27 12:08:48;;;;;;;9.27;4.47;;;19.00;99.90;;;;;;5059278;28;25088;-66
2021/09/27 12:11:16;;;;;;;5.93;3.53;;;19.00;99.90;;;;;;5064243;28;25077;-66
2021/09/27 12:13:48;;;;;;;5.68;3.55;;;19.00;99.90;;;;;;5064418;28;25050;-66
2021/09/27 12:16:24;;;;;;;7.00;4.07;;;19.00;99.90;;;;;;5064921;28;25128;-66
2021/09/27 12:19:01;;;;;;;4.65;4.25;;;19.00;99.90;;;;;;5061386;28;25046;-65
2021/09/27 12:21:38;;;;;;;8.15;4.57;;;19.10;99.90;;;;;;5060721;28;25136;-67
2021/09/27 12:24:10;;;;;;;7.05;4.38;;;19.10;99.90;;;;;;5060934;28;25065;-65
2021/09/27 12:26:51;;;;;;;9.13;5.32;;;19.20;99.90;;;;;;5054572;28;25055;-65
2021/09/27 12:29:59;;;;;;;7.32;4.35;;;19.20;99.90;;;;;;5060126;28;25072;-66
2021/09/27 12:32:26;;;;;;;8.10;4.68;;;19.20;99.90;;;;;;5034364;28;25061;-65
2021/09/27 12:34:52;;;;;;;8.18;4.85;;;19.20;99.90;;;;;;5057135;28;25077;-66
2021/09/27 12:37:24;;;;;;;8.48;6.05;;;19.20;99.90;;;;;;5062092;28;25114;-66
2021/09/27 12:39:50;;;;;;;11.32;5.60;;;19.00;99.90;;;;;;5054592;28;25071;-65
2021/09/27 12:42:23;;;;;;;10.18;6.72;;;18.80;99.90;;;;;;5062218;28;25084;-66
2021/09/27 12:45:08;;;;;;;12.73;7.43;;;18.40;99.90;;;;;;5062685;28;25091;-65
2021/09/27 12:47:34;;;;;;;15.10;8.18;;;18.20;99.90;;;;;;5059870;28;25073;-68
2021/09/27 12:50:05;;;;;;;10.48;8.20;;;18.10;99.90;;;;;;5054830;28;25092;-66
2021/09/27 12:53:01;;;;;;;12.80;8.97;;;17.90;99.90;;;;;;5062922;28;25053;-69
2021/09/27 12:55:40;;;;;;;16.40;9.50;;;17.80;99.90;;;;;;5053759;28;25101;-67
2021/09/27 12:58:23;;;;;;;14.15;10.90;;;17.70;99.90;;;;;;5057700;28;25069;-65
2021/09/27 13:00:50;;;;;;;14.38;10.27;;;17.60;99.90;;;;;;5055193;28;25056;-68
2021/09/27 13:03:23;;;;;;;17.58;10.68;;;17.70;99.90;;;;;;5053407;28;25090;-65
2021/09/27 13:06:11;;;;;;;11.93;9.82;;;17.60;99.90;;;;;;5062032;28;25142;-66
2021/09/27 13:08:44;;;;;;;13.05;9.60;;;17.50;99.90;;;;;;5060265;28;25096;-66
2021/09/27 13:11:38;;;;;;;11.00;7.63;;;17.60;99.90;;;;;;5058849;28;25094;-67
2021/09/27 13:14:22;;;;;;;8.18;5.70;;;17.50;99.90;;;;;;5054514;28;25114;-65
2021/09/27 13:16:52;;;;;;;8.82;4.30;;;17.30;99.90;;;;;;5064974;28;25076;-65
2021/09/27 13:19:37;;;;;;;6.03;3.60;;;17.10;99.90;;;;;;5057887;28;25056;-67
2021/09/27 13:22:04;;;;;;;4.25;3.95;;;17.20;99.90;;;;;;5061834;28;25063;-65